Time;durP1;ratioP1;P1;durP2;ratioP2;P2;SDS_P1;SDS_P2;PMS_P1;PMS_P2;Temp;Humidity;BMP_temperature;BMP_pressure;BME280_temperature;BME280_humidity;BME280_pressure;Samples;Min_cycle;Max_cycle;Signal;HPM_P1;HPM_P2
2023/09/03 00:00:41;;;;;;;3.67;2.33;;;;;;;-146.87;100.00;60295.22;4983044;28;20257;-47
2023/09/03 00:03:07;;;;;;;4.53;2.40;;;;;;;-146.87;100.00;60295.22;4964014;28;20197;-47
2023/09/03 00:05:33;;;;;;;4.60;2.22;;;;;;;-146.87;100.00;60295.22;4979101;28;20209;-46
2023/09/03 00:07:59;;;;;;;6.65;2.47;;;;;;;-146.87;100.00;60295.22;4971689;28;20238;-47
2023/09/03 00:10:24;;;;;;;3.70;2.17;;;;;;;-146.87;100.00;60295.22;4985639;28;20684;-49
2023/09/03 00:12:50;;;;;;;2.70;1.77;;;;;;;-146.87;100.00;60295.22;4973112;28;20544;-47
2023/09/03 00:15:21;;;;;;;4.05;2.10;;;;;;;-146.87;100.00;60295.22;4972254;28;20209;-46
2023/09/03 00:17:47;;;;;;;4.13;2.10;;;;;;;-146.87;100.00;60295.22;4985038;28;20195;-48
2023/09/03 00:20:13;;;;;;;2.42;1.98;;;;;;;-146.87;100.00;60295.22;4975596;28;20619;-52
2023/09/03 00:22:39;;;;;;;3.40;1.92;;;;;;;-146.87;100.00;60295.22;4974790;28;20218;-48
2023/09/03 00:25:05;;;;;;;3.42;2.00;;;;;;;-146.87;100.00;60295.22;4987052;28;20209;-45
2023/09/03 00:27:32;;;;;;;5.35;2.25;;;;;;;-146.87;100.00;60295.22;4971126;28;20192;-45
2023/09/03 00:29:57;;;;;;;3.47;2.22;;;;;;;-146.87;100.00;60295.22;4970854;28;20212;-50
2023/09/03 00:32:23;;;;;;;4.72;2.20;;;;;;;-146.87;100.00;60295.22;4984995;28;20296;-48
2023/09/03 00:34:48;;;;;;;5.72;2.40;;;;;;;-146.87;100.00;60295.22;4955503;28;20268;-46
2023/09/03 00:37:14;;;;;;;3.25;1.98;;;;;;;-146.87;100.00;60295.22;4953324;28;20703;-50
2023/09/03 00:39:39;;;;;;;3.83;2.38;;;;;;;-146.87;100.00;60295.22;4970902;28;20213;-45
2023/09/03 00:42:05;;;;;;;2.70;2.00;;;;;;;-146.87;100.00;60295.22;4962944;28;20174;-47
2023/09/03 00:44:31;;;;;;;4.53;2.05;;;;;;;-146.87;100.00;60295.22;4977406;28;20272;-52
2023/09/03 00:46:57;;;;;;;3.20;2.22;;;;;;;-146.87;100.00;60295.22;4971943;28;20181;-45
2023/09/03 00:49:24;;;;;;;3.22;2.17;;;;;;;-146.87;100.00;60295.22;4953252;28;20178;-45
2023/09/03 00:51:52;;;;;;;6.97;2.33;;;;;;;-146.87;100.00;60295.22;4951364;28;20187;-47
2023/09/03 00:54:21;;;;;;;3.15;2.00;;;;;;;-146.87;100.00;60295.22;4983608;28;20689;-48
2023/09/03 00:56:49;;;;;;;8.30;2.53;;;;;;;-146.87;100.00;60295.22;4973156;28;20273;-47
2023/09/03 00:59:15;;;;;;;2.50;2.08;;;;;;;-146.87;100.00;60295.22;4970350;28;20196;-46
2023/09/03 01:01:42;;;;;;;4.25;1.90;;;;;;;-146.87;100.00;60295.22;4960798;28;20192;-45
2023/09/03 01:04:07;;;;;;;3.95;1.60;;;;;;;-146.87;100.00;60295.22;4981521;28;20283;-47
2023/09/03 01:06:33;;;;;;;3.65;2.20;;;;;;;-146.87;100.00;60295.22;4982808;28;20294;-48
2023/09/03 01:08:58;;;;;;;3.40;1.88;;;;;;;-146.87;100.00;60295.22;4952955;28;20181;-52
2023/09/03 01:11:27;;;;;;;4.05;2.28;;;;;;;-146.87;100.00;60295.22;4975956;28;20197;-47
2023/09/03 01:14:02;;;;;;;4.78;2.40;;;;;;;-146.87;100.00;60295.22;4979112;28;20205;-47
2023/09/03 01:16:36;;;;;;;8.60;2.38;;;;;;;-146.87;100.00;60295.22;4981754;28;20181;-50
2023/09/03 01:19:09;;;;;;;3.15;2.08;;;;;;;-146.87;100.00;60295.22;4940056;28;20278;-51
2023/09/03 01:22:08;;;;;;;2.85;2.30;;;;;;;-146.87;100.00;60295.22;4970178;28;20167;-47
2023/09/03 01:24:56;;;;;;;3.47;2.20;;;;;;;-146.87;100.00;60295.22;4959664;28;20856;-46
2023/09/03 01:27:33;;;;;;;4.97;2.50;;;;;;;-146.87;100.00;60295.22;4939262;28;20191;-49
2023/09/03 01:29:59;;;;;;;3.38;2.38;;;;;;;-146.87;100.00;60295.22;4952492;28;20210;-48
2023/09/03 01:32:25;;;;;;;7.03;2.95;;;;;;;-146.87;100.00;60295.22;4936587;28;20209;-51
2023/09/03 01:34:53;;;;;;;6.18;2.45;;;;;;;-146.87;100.00;60295.22;4970217;28;20257;-48
2023/09/03 01:37:18;;;;;;;3.00;2.20;;;;;;;-146.87;100.00;60295.22;4978213;28;20628;-46
2023/09/03 01:39:45;;;;;;;3.97;2.65;;;;;;;-146.87;100.00;60295.22;4960456;28;20232;-45
2023/09/03 01:42:11;;;;;;;4.38;2.35;;;;;;;-146.87;100.00;60295.22;4959540;28;20185;-53
2023/09/03 01:44:37;;;;;;;3.90;2.58;;;;;;;-146.87;100.00;60295.22;4974206;28;20181;-47
2023/09/03 01:47:42;;;;;;;4.15;2.05;;;;;;;-146.87;100.00;60295.22;4952528;28;20193;-47
2023/09/03 01:50:21;;;;;;;2.05;1.83;;;;;;;-146.87;100.00;60295.22;4900547;28;20234;-50
2023/09/03 01:52:59;;;;;;;3.42;2.00;;;;;;;-146.87;100.00;60295.22;4952445;28;20205;-49
2023/09/03 01:55:27;;;;;;;4.30;1.95;;;;;;;-146.87;100.00;60295.22;4952286;28;20178;-47
2023/09/03 01:57:59;;;;;;;2.70;1.65;;;;;;;-146.87;100.00;60295.22;4960130;28;20684;-46
2023/09/03 02:00:26;;;;;;;4.93;1.80;;;;;;;-146.87;100.00;60295.22;4952312;28;20202;-49
2023/09/03 02:02:52;;;;;;;3.65;1.77;;;;;;;-146.87;100.00;60295.22;4952101;28;20236;-46
2023/09/03 02:05:18;;;;;;;3.42;2.15;;;;;;;-146.87;100.00;60295.22;4952136;28;20305;-47
2023/09/03 02:07:43;;;;;;;4.53;2.05;;;;;;;-146.87;100.00;60295.22;4977394;28;20264;-47
2023/09/03 02:10:10;;;;;;;3.97;2.17;;;;;;;-146.87;100.00;60295.22;4978094;28;20277;-52
2023/09/03 02:12:35;;;;;;;6.20;2.22;;;;;;;-146.87;100.00;60295.22;4951967;28;20636;-49
2023/09/03 02:15:01;;;;;;;3.85;2.00;;;;;;;-146.87;100.00;60295.22;4961858;28;20208;-51
2023/09/03 02:17:26;;;;;;;4.47;2.08;;;;;;;-146.87;100.00;60295.22;4975511;28;20188;-46
2023/09/03 02:19:53;;;;;;;3.45;1.60;;;;;;;-146.87;100.00;60295.22;4969457;28;20696;-51
2023/09/03 02:22:19;;;;;;;7.45;2.00;;;;;;;-146.87;100.00;60295.22;4969495;28;20593;-48
2023/09/03 02:24:45;;;;;;;5.22;1.75;;;;;;;-146.87;100.00;60295.22;4973412;28;20209;-47
2023/09/03 02:27:11;;;;;;;4.00;1.90;;;;;;;-146.87;100.00;60295.22;5000244;28;20186;-49
2023/09/03 02:29:38;;;;;;;4.22;1.77;;;;;;;-146.87;100.00;60295.22;4970638;28;20338;-51
2023/09/03 02:32:08;;;;;;;6.68;2.20;;;;;;;-146.87;100.00;60295.22;4953922;28;20177;-47
2023/09/03 02:34:36;;;;;;;5.20;2.08;;;;;;;-146.87;100.00;60295.22;4957380;28;20209;-49
2023/09/03 02:37:04;;;;;;;3.50;1.88;;;;;;;-146.87;100.00;60295.22;4966391;28;20187;-47
2023/09/03 02:39:29;;;;;;;8.18;2.13;;;;;;;-146.87;100.00;60295.22;4971138;28;20210;-48
2023/09/03 02:41:57;;;;;;;5.25;2.10;;;;;;;-146.87;100.00;60295.22;4973033;28;20190;-47
2023/09/03 02:44:23;;;;;;;6.10;1.85;;;;;;;-146.87;100.00;60295.22;4977224;28;20173;-46
2023/09/03 02:46:48;;;;;;;4.20;1.73;;;;;;;-146.87;100.00;60295.22;4961087;28;20617;-46
2023/09/03 02:49:14;;;;;;;3.60;1.90;;;;;;;-146.87;100.00;60295.22;4958603;28;20551;-53
2023/09/03 02:51:41;;;;;;;8.15;2.10;;;;;;;-146.87;100.00;60295.22;4967991;28;20201;-46
2023/09/03 02:54:07;;;;;;;4.57;2.03;;;;;;;-146.87;100.00;60295.22;4972571;28;20735;-46
2023/09/03 02:56:33;;;;;;;4.35;1.98;;;;;;;-146.87;100.00;60295.22;4952134;29;20179;-53
2023/09/03 02:58:59;;;;;;;6.07;1.95;;;;;;;-146.87;100.00;60295.22;4968861;28;20169;-47
2023/09/03 03:01:25;;;;;;;3.58;1.90;;;;;;;-146.87;100.00;60295.22;4955122;28;20201;-45
2023/09/03 03:03:51;;;;;;;5.22;2.28;;;;;;;-146.87;100.00;60295.22;4955064;28;20592;-47
2023/09/03 03:06:17;;;;;;;3.92;1.73;;;;;;;-146.87;100.00;60295.22;4969072;28;20277;-49
2023/09/03 03:08:43;;;;;;;5.32;1.75;;;;;;;-146.87;100.00;60295.22;4972594;28;20569;-46
2023/09/03 03:11:16;;;;;;;5.55;1.92;;;;;;;-146.87;100.00;60295.22;4972211;28;20229;-45
2023/09/03 03:13:51;;;;;;;4.53;1.90;;;;;;;-146.87;100.00;60295.22;4956045;28;20182;-46
2023/09/03 03:16:19;;;;;;;3.38;1.80;;;;;;;-146.87;100.00;60295.22;4955528;28;20605;-47
2023/09/03 03:18:48;;;;;;;4.13;1.70;;;;;;;-146.87;100.00;60295.22;4962909;28;20190;-45
2023/09/03 03:21:19;;;;;;;3.33;1.50;;;;;;;-146.87;100.00;60295.22;4957695;28;20197;-48
2023/09/03 03:23:48;;;;;;;3.50;1.50;;;;;;;-146.87;100.00;60295.22;4952092;28;20179;-52
2023/09/03 03:26:14;;;;;;;3.25;1.77;;;;;;;-146.87;100.00;60295.22;4971304;28;20240;-47
2023/09/03 03:28:40;;;;;;;3.42;1.45;;;;;;;-146.87;100.00;60295.22;4954847;28;20699;-46
2023/09/03 03:31:14;;;;;;;6.95;1.95;;;;;;;-146.87;100.00;60295.22;4956142;28;20194;-47
2023/09/03 03:33:42;;;;;;;6.28;2.05;;;;;;;-146.87;100.00;60295.22;4955397;28;20602;-47
2023/09/03 03:36:12;;;;;;;6.32;2.17;;;;;;;-146.87;100.00;60295.22;4970358;28;20170;-47
2023/09/03 03:38:38;;;;;;;6.75;1.95;;;;;;;-146.87;100.00;60295.22;4962538;28;20178;-52
2023/09/03 03:41:14;;;;;;;3.17;1.67;;;;;;;-146.87;100.00;60295.22;4954550;28;20210;-45
2023/09/03 03:43:43;;;;;;;4.57;1.70;;;;;;;-146.87;100.00;60295.22;4971065;28;20320;-46
2023/09/03 03:46:13;;;;;;;5.45;1.90;;;;;;;-146.87;100.00;60295.22;4954281;28;20280;-46
2023/09/03 03:48:40;;;;;;;4.07;1.65;;;;;;;-146.87;100.00;60295.22;4960663;28;20192;-47
2023/09/03 03:51:05;;;;;;;3.55;1.80;;;;;;;-146.87;100.00;60295.22;4980653;28;20193;-48
2023/09/03 03:53:31;;;;;;;6.35;2.13;;;;;;;-146.87;100.00;60295.22;4953472;28;20206;-49
2023/09/03 03:56:05;;;;;;;2.30;1.63;;;;;;;-146.87;100.00;60295.22;4954267;28;20190;-48
2023/09/03 03:58:33;;;;;;;4.70;1.83;;;;;;;-146.87;100.00;60295.22;4968910;28;20182;-47
2023/09/03 04:00:59;;;;;;;4.28;1.70;;;;;;;-146.87;100.00;60295.22;4971340;28;20250;-47
2023/09/03 04:03:27;;;;;;;4.07;1.52;;;;;;;-146.87;100.00;60295.22;4954193;28;20663;-46
2023/09/03 04:05:57;;;;;;;9.13;2.25;;;;;;;-146.87;100.00;60295.22;4978503;28;20311;-48
2023/09/03 04:08:23;;;;;;;1.58;1.40;;;;;;;-146.87;100.00;60295.22;4971350;28;20565;-47
2023/09/03 04:10:59;;;;;;;2.20;1.60;;;;;;;-146.87;100.00;60295.22;4953974;28;20283;-48
2023/09/03 04:13:29;;;;;;;3.28;1.42;;;;;;;-146.87;100.00;60295.22;4967520;28;20200;-48
2023/09/03 04:15:55;;;;;;;5.47;1.88;;;;;;;-146.87;100.00;60295.22;4957497;28;20229;-52
2023/09/03 04:18:26;;;;;;;3.63;1.98;;;;;;;-146.87;100.00;60295.22;4971518;28;20257;-49
2023/09/03 04:20:56;;;;;;;6.30;2.05;;;;;;;-146.87;100.00;60295.22;4961979;28;20228;-47
2023/09/03 04:23:23;;;;;;;5.57;1.75;;;;;;;-146.87;100.00;60295.22;4953855;28;20268;-48
2023/09/03 04:25:51;;;;;;;3.22;1.70;;;;;;;-146.87;100.00;60295.22;4954030;28;20194;-52
2023/09/03 04:28:17;;;;;;;7.30;1.80;;;;;;;-146.87;100.00;60295.22;4953504;28;20273;-44
2023/09/03 04:30:43;;;;;;;4.90;1.90;;;;;;;-146.87;100.00;60295.22;4976844;28;20204;-46
2023/09/03 04:33:09;;;;;;;3.58;1.75;;;;;;;-146.87;100.00;60295.22;4962812;28;20540;-47
2023/09/03 04:35:37;;;;;;;5.55;1.77;;;;;;;-146.87;100.00;60295.22;4953281;28;20174;-48
2023/09/03 04:38:04;;;;;;;4.50;1.80;;;;;;;-146.87;100.00;60295.22;4953189;28;20253;-47
2023/09/03 04:40:34;;;;;;;3.63;1.52;;;;;;;-146.87;100.00;60295.22;4952943;28;20209;-50
2023/09/03 04:43:02;;;;;;;4.00;1.70;;;;;;;-146.87;100.00;60295.22;4953059;28;20542;-47
2023/09/03 04:45:29;;;;;;;1.95;1.40;;;;;;;-146.87;100.00;60295.22;4960706;28;20261;-53
2023/09/03 04:47:56;;;;;;;3.75;1.85;;;;;;;-146.87;100.00;60295.22;4952680;28;20190;-53
2023/09/03 04:50:23;;;;;;;4.00;1.90;;;;;;;-146.87;100.00;60295.22;4952815;28;20217;-47
2023/09/03 04:52:49;;;;;;;4.40;1.60;;;;;;;-146.87;100.00;60295.22;4952775;28;20603;-51
2023/09/03 04:55:16;;;;;;;5.78;1.77;;;;;;;-146.87;100.00;60295.22;4952926;28;20189;-50
2023/09/03 04:57:42;;;;;;;2.63;1.20;;;;;;;-146.87;100.00;60295.22;4970102;28;20182;-48
2023/09/03 05:00:08;;;;;;;4.38;1.88;;;;;;;-146.87;100.00;60295.22;4963507;28;20205;-45
2023/09/03 05:02:34;;;;;;;1.77;1.67;;;;;;;-146.87;100.00;60295.22;4942678;28;20166;-49
2023/09/03 05:05:01;;;;;;;6.47;1.85;;;;;;;-146.87;100.00;60295.22;4953971;23;22291;-47
2023/09/03 05:07:27;;;;;;;5.63;1.92;;;;;;;-146.87;100.00;60295.22;4950550;29;20679;-48
2023/09/03 05:09:54;;;;;;;4.22;1.70;;;;;;;-146.87;100.00;60295.22;4950518;29;20294;-47
2023/09/03 05:12:20;;;;;;;6.05;1.70;;;;;;;-146.87;100.00;60295.22;4933287;29;20242;-46
2023/09/03 05:14:45;;;;;;;3.78;1.65;;;;;;;-146.87;100.00;60295.22;4932902;29;20183;-48
2023/09/03 05:17:11;;;;;;;3.90;1.58;;;;;;;-146.87;100.00;60295.22;4932810;29;20637;-50
2023/09/03 05:19:37;;;;;;;5.05;1.98;;;;;;;-146.87;100.00;60295.22;4950260;29;20237;-46
2023/09/03 05:22:03;;;;;;;5.47;1.80;;;;;;;-146.87;100.00;60295.22;4932933;29;20581;-50
2023/09/03 05:24:29;;;;;;;1.40;1.30;;;;;;;-146.87;100.00;60295.22;4950023;29;20213;-47
2023/09/03 05:26:54;;;;;;;5.38;1.70;;;;;;;-146.87;100.00;60295.22;4932604;29;20210;-48
2023/09/03 05:29:20;;;;;;;3.38;1.30;;;;;;;-146.87;100.00;60295.22;4932214;29;20178;-51
2023/09/03 05:31:46;;;;;;;3.63;1.52;;;;;;;-146.87;100.00;60295.22;4932534;29;20179;-51
2023/09/03 05:34:11;;;;;;;3.63;1.60;;;;;;;-146.87;100.00;60295.22;4932897;29;20706;-47
2023/09/03 05:36:37;;;;;;;7.22;1.85;;;;;;;-146.87;100.00;60295.22;4950325;29;20281;-47
2023/09/03 05:39:03;;;;;;;3.08;1.63;;;;;;;-146.87;100.00;60295.22;4950094;29;20266;-47
2023/09/03 05:41:29;;;;;;;3.33;1.60;;;;;;;-146.87;100.00;60295.22;4933089;29;20206;-47
2023/09/03 05:43:57;;;;;;;3.00;1.80;;;;;;;-146.87;100.00;60295.22;4933539;29;20175;-48
2023/09/03 05:46:23;;;;;;;5.50;1.45;;;;;;;-146.87;100.00;60295.22;4933351;29;20211;-47
2023/09/03 05:48:52;;;;;;;2.63;1.52;;;;;;;-146.87;100.00;60295.22;4933026;29;20193;-52
2023/09/03 05:51:18;;;;;;;1.83;1.42;;;;;;;-146.87;100.00;60295.22;4932980;29;20210;-48
2023/09/03 05:53:44;;;;;;;5.40;1.40;;;;;;;-146.87;100.00;60295.22;4950145;29;20182;-49
2023/09/03 05:56:11;;;;;;;4.22;1.38;;;;;;;-146.87;100.00;60295.22;4932904;29;20183;-46
2023/09/03 05:58:40;;;;;;;3.58;1.52;;;;;;;-146.87;100.00;60295.22;4932647;29;20657;-49
2023/09/03 06:01:10;;;;;;;4.72;1.80;;;;;;;-146.87;100.00;60295.22;4932897;29;20202;-47
2023/09/03 06:03:37;;;;;;;2.33;1.33;;;;;;;-146.87;100.00;60295.22;4950152;29;20162;-47
2023/09/03 06:06:07;;;;;;;8.07;1.65;;;;;;;-146.87;100.00;60295.22;4932746;29;20301;-49
2023/09/03 06:08:34;;;;;;;4.95;1.50;;;;;;;-146.87;100.00;60295.22;4932765;29;20175;-48
2023/09/03 06:11:00;;;;;;;1.42;1.13;;;;;;;-146.87;100.00;60295.22;4949941;29;20202;-47
2023/09/03 06:13:27;;;;;;;3.60;1.42;;;;;;;-146.87;100.00;60295.22;4950388;28;20229;-48
2023/09/03 06:15:53;;;;;;;4.45;1.40;;;;;;;-146.87;100.00;60295.22;4953789;29;20173;-47
2023/09/03 06:18:18;;;;;;;2.70;1.65;;;;;;;-146.87;100.00;60295.22;4955477;28;20233;-48
2023/09/03 06:20:44;;;;;;;4.10;1.30;;;;;;;-146.87;100.00;60295.22;4973110;28;20673;-49
2023/09/03 06:23:11;;;;;;;4.25;1.80;;;;;;;-146.87;100.00;60295.22;4973121;28;20186;-50
2023/09/03 06:25:38;;;;;;;3.95;1.58;;;;;;;-146.87;100.00;60295.22;4972870;28;20210;-51
2023/09/03 06:28:03;;;;;;;1.30;1.15;;;;;;;-146.87;100.00;60295.22;4965548;28;20653;-47
2023/09/03 06:30:29;;;;;;;3.88;1.50;;;;;;;-146.87;100.00;60295.22;4953335;29;20210;-48
2023/09/03 06:32:54;;;;;;;4.25;1.45;;;;;;;-146.87;100.00;60295.22;4953412;29;20174;-51
2023/09/03 06:35:20;;;;;;;3.65;1.33;;;;;;;-146.87;100.00;60295.22;4953249;29;20179;-46
2023/09/03 06:37:45;;;;;;;5.05;1.10;;;;;;;-146.87;100.00;60295.22;4953360;29;20586;-47
2023/09/03 06:40:14;;;;;;;4.55;1.30;;;;;;;-146.87;100.00;60295.22;4953152;29;20263;-51
2023/09/03 06:42:41;;;;;;;3.03;1.17;;;;;;;-146.87;100.00;60295.22;4953109;29;20183;-47
2023/09/03 06:45:07;;;;;;;2.05;1.10;;;;;;;-146.87;100.00;60295.22;4950807;29;20546;-47
2023/09/03 06:47:33;;;;;;;2.35;1.30;;;;;;;-146.87;100.00;60295.22;4952632;29;20274;-46
2023/09/03 06:49:58;;;;;;;5.00;1.30;;;;;;;-146.87;100.00;60295.22;4953292;29;20681;-45
2023/09/03 06:52:24;;;;;;;2.95;0.95;;;;;;;-146.87;100.00;60295.22;4950118;29;20187;-50
2023/09/03 06:54:50;;;;;;;3.92;1.40;;;;;;;-146.87;100.00;60295.22;4952968;29;20221;-45
2023/09/03 06:57:16;;;;;;;3.00;1.10;;;;;;;-146.87;100.00;60295.22;4932684;29;20195;-49
2023/09/03 06:59:42;;;;;;;3.95;1.10;;;;;;;-146.87;100.00;60295.22;4949697;29;20546;-46
2023/09/03 07:02:08;;;;;;;2.10;1.20;;;;;;;-146.87;100.00;60295.22;4951041;29;20270;-47
2023/09/03 07:04:36;;;;;;;1.83;1.40;;;;;;;-146.87;100.00;60295.22;4952027;29;20672;-46
2023/09/03 07:07:03;;;;;;;3.78;1.33;;;;;;;-146.87;100.00;60295.22;4952496;29;20203;-45
2023/09/03 07:09:31;;;;;;;2.10;1.10;;;;;;;-146.87;100.00;60295.22;4952177;29;20568;-46
2023/09/03 07:11:57;;;;;;;3.08;1.33;;;;;;;-146.87;100.00;60295.22;4952145;29;20191;-45
2023/09/03 07:14:22;;;;;;;2.63;1.10;;;;;;;-146.87;100.00;60295.22;4953629;28;20189;-46
2023/09/03 07:16:48;;;;;;;3.60;1.17;;;;;;;-146.87;100.00;60295.22;4958752;28;20190;-50
2023/09/03 07:19:13;;;;;;;2.42;1.33;;;;;;;-146.87;100.00;60295.22;4960175;28;20221;-45
2023/09/03 07:21:38;;;;;;;1.17;1.00;;;;;;;-146.87;100.00;60295.22;4951658;29;20588;-46
2023/09/03 07:24:04;;;;;;;2.85;1.10;;;;;;;-146.87;100.00;60295.22;4951930;28;20183;-46
2023/09/03 07:26:30;;;;;;;3.17;1.30;;;;;;;-146.87;100.00;60295.22;4950221;28;20225;-45
2023/09/03 07:28:55;;;;;;;3.00;1.63;;;;;;;-146.87;100.00;60295.22;4952010;29;20266;-44
2023/09/03 07:31:21;;;;;;;3.50;1.10;;;;;;;-146.87;100.00;60295.22;4951811;29;20265;-49
2023/09/03 07:33:48;;;;;;;8.05;1.50;;;;;;;-146.87;100.00;60295.22;4952087;29;20179;-49
2023/09/03 07:36:13;;;;;;;4.00;1.40;;;;;;;-146.87;100.00;60295.22;4960540;28;20314;-51
2023/09/03 07:38:39;;;;;;;4.53;1.75;;;;;;;-146.87;100.00;60295.22;4952192;29;20732;-46
2023/09/03 07:41:04;;;;;;;3.95;1.60;;;;;;;-146.87;100.00;60295.22;4951786;29;20211;-46
2023/09/03 07:43:30;;;;;;;4.38;1.50;;;;;;;-146.87;100.00;60295.22;4959746;28;20194;-47
2023/09/03 07:45:56;;;;;;;3.88;1.25;;;;;;;-146.87;100.00;60295.22;4951828;29;20222;-45
2023/09/03 07:48:22;;;;;;;4.97;1.80;;;;;;;-146.87;100.00;60295.22;4959514;28;20201;-44
2023/09/03 07:50:49;;;;;;;4.88;1.73;;;;;;;-146.87;100.00;60295.22;4951953;29;20210;-45
2023/09/03 07:53:15;;;;;;;3.00;1.50;;;;;;;-146.87;100.00;60295.22;4951328;28;20191;-47
2023/09/03 07:55:40;;;;;;;4.70;1.50;;;;;;;-146.87;100.00;60295.22;4959817;28;21031;-45
2023/09/03 07:58:06;;;;;;;3.55;1.38;;;;;;;-146.87;100.00;60295.22;4966897;28;20212;-45
2023/09/03 08:00:32;;;;;;;4.43;1.77;;;;;;;-146.87;100.00;60295.22;4952702;28;20693;-45
2023/09/03 08:02:57;;;;;;;3.00;1.63;;;;;;;-146.87;100.00;60295.22;4951843;29;20186;-48
2023/09/03 08:05:23;;;;;;;3.75;1.52;;;;;;;-146.87;100.00;60295.22;4949640;29;20218;-45
2023/09/03 08:07:50;;;;;;;3.70;1.60;;;;;;;-146.87;100.00;60295.22;4951432;29;20194;-46
2023/09/03 08:10:15;;;;;;;1.80;1.30;;;;;;;-146.87;100.00;60295.22;4950913;29;20223;-47
2023/09/03 08:12:41;;;;;;;3.42;1.55;;;;;;;-146.87;100.00;60295.22;4943252;29;20186;-45
2023/09/03 08:15:07;;;;;;;3.67;1.45;;;;;;;-146.87;100.00;60295.22;4950314;28;20218;-48
2023/09/03 08:17:33;;;;;;;4.38;1.85;;;;;;;-146.87;100.00;60295.22;4950669;29;20182;-46
2023/09/03 08:19:58;;;;;;;4.97;1.70;;;;;;;-146.87;100.00;60295.22;4951372;29;20256;-46
2023/09/03 08:22:24;;;;;;;4.10;1.58;;;;;;;-146.87;100.00;60295.22;4951851;28;20265;-45
2023/09/03 08:24:49;;;;;;;2.45;1.30;;;;;;;-146.87;100.00;60295.22;4958149;28;20190;-47
2023/09/03 08:27:15;;;;;;;3.72;1.50;;;;;;;-146.87;100.00;60295.22;4951131;29;20665;-50
2023/09/03 08:29:42;;;;;;;3.28;1.50;;;;;;;-146.87;100.00;60295.22;4962081;28;20879;-47
2023/09/03 08:32:07;;;;;;;4.07;1.42;;;;;;;-146.87;100.00;60295.22;4951998;28;20265;-49
2023/09/03 08:34:33;;;;;;;6.13;1.40;;;;;;;-146.87;100.00;60295.22;4950962;29;20781;-46
2023/09/03 08:36:59;;;;;;;3.05;1.33;;;;;;;-146.87;100.00;60295.22;4950238;28;20171;-44
2023/09/03 08:39:24;;;;;;;2.42;1.30;;;;;;;-146.87;100.00;60295.22;4951571;28;20645;-46
2023/09/03 08:41:50;;;;;;;4.80;1.50;;;;;;;-146.87;100.00;60295.22;4965932;28;20198;-46
2023/09/03 08:44:37;;;;;;;5.28;1.20;;;;;;;-146.87;100.00;60295.22;4958731;28;20182;-46
2023/09/03 08:47:03;;;;;;;3.97;1.48;;;;;;;-146.87;100.00;60295.22;4955486;28;20199;-49
2023/09/03 08:49:31;;;;;;;4.03;1.40;;;;;;;-146.87;100.00;60295.22;4960790;28;21510;-47
2023/09/03 08:51:58;;;;;;;3.22;1.60;;;;;;;-146.87;100.00;60295.22;4951440;28;20182;-46
2023/09/03 08:54:27;;;;;;;3.03;1.52;;;;;;;-146.87;100.00;60295.22;4954029;28;20182;-49
2023/09/03 08:56:53;;;;;;;3.20;1.30;;;;;;;-146.87;100.00;60295.22;4955223;28;20273;-46
2023/09/03 08:59:19;;;;;;;3.35;1.60;;;;;;;-146.87;100.00;60295.22;4944808;28;20662;-49
2023/09/03 09:01:51;;;;;;;4.97;1.45;;;;;;;-146.87;100.00;60295.22;4950740;29;20277;-46
2023/09/03 09:04:16;;;;;;;3.33;1.70;;;;;;;-146.87;100.00;60295.22;4949722;28;20201;-46
2023/09/03 09:06:43;;;;;;;3.85;1.30;;;;;;;-146.87;100.00;60295.22;4958417;28;20202;-47
2023/09/03 09:09:10;;;;;;;3.92;1.25;;;;;;;-146.87;100.00;60295.22;4949721;28;20178;-45
2023/09/03 09:11:39;;;;;;;2.42;1.33;;;;;;;-146.87;100.00;60295.22;4959178;28;20194;-44
2023/09/03 09:14:18;;;;;;;5.20;1.60;;;;;;;-146.87;100.00;60295.22;4953791;28;20189;-47
2023/09/03 09:16:43;;;;;;;2.40;1.30;;;;;;;-146.87;100.00;60295.22;4950437;28;20181;-46
2023/09/03 09:19:09;;;;;;;1.92;1.20;;;;;;;-146.87;100.00;60295.22;4950162;28;20187;-47
2023/09/03 09:21:35;;;;;;;3.40;1.50;;;;;;;-146.87;100.00;60295.22;4958140;28;20193;-49
2023/09/03 09:24:05;;;;;;;2.88;1.17;;;;;;;-146.87;100.00;60295.22;4954028;28;20178;-44
2023/09/03 09:26:32;;;;;;;4.38;1.40;;;;;;;-146.87;100.00;60295.22;4957278;28;20289;-44
2023/09/03 09:28:59;;;;;;;2.08;1.33;;;;;;;-146.87;100.00;60295.22;4953409;28;20589;-45
2023/09/03 09:31:33;;;;;;;4.70;1.52;;;;;;;-146.87;100.00;60295.22;4942722;28;20213;-44
2023/09/03 09:34:01;;;;;;;3.38;1.38;;;;;;;-146.87;100.00;60295.22;4961338;28;20204;-46
2023/09/03 09:36:27;;;;;;;2.83;1.60;;;;;;;-146.87;100.00;60295.22;4952781;28;20183;-45
2023/09/03 09:38:52;;;;;;;4.28;1.50;;;;;;;-146.87;100.00;60295.22;4957812;28;20688;-49
2023/09/03 09:41:22;;;;;;;1.58;1.27;;;;;;;-146.87;100.00;60295.22;4936541;28;20902;-43
2023/09/03 09:43:48;;;;;;;4.22;1.38;;;;;;;-146.87;100.00;60295.22;4956338;28;20182;-47
2023/09/03 09:46:30;;;;;;;2.05;1.20;;;;;;;-146.87;100.00;60295.22;4947728;28;20323;-46
2023/09/03 09:48:57;;;;;;;3.17;1.23;;;;;;;-146.87;100.00;60295.22;4929055;29;20183;-45
2023/09/03 09:51:23;;;;;;;4.13;1.85;;;;;;;-146.87;100.00;60295.22;4944592;28;20336;-45
2023/09/03 09:53:59;;;;;;;1.83;1.13;;;;;;;-146.87;100.00;60295.22;4949755;28;20637;-46
2023/09/03 09:56:29;;;;;;;3.13;1.48;;;;;;;-146.87;100.00;60295.22;4958283;28;20177;-46
2023/09/03 09:58:58;;;;;;;4.10;1.55;;;;;;;-146.87;100.00;60295.22;4958546;28;20218;-46
2023/09/03 10:01:27;;;;;;;1.60;1.38;;;;;;;-146.87;100.00;60295.22;4934713;29;20206;-45
2023/09/03 10:03:53;;;;;;;3.30;1.30;;;;;;;-146.87;100.00;60295.22;4943840;29;20225;-45
2023/09/03 10:06:21;;;;;;;1.40;1.30;;;;;;;-146.87;100.00;60295.22;4949662;28;20221;-47
2023/09/03 10:08:49;;;;;;;2.78;1.42;;;;;;;-146.87;100.00;60295.22;4950038;29;20237;-44
2023/09/03 10:11:15;;;;;;;3.05;1.30;;;;;;;-146.87;100.00;60295.22;4949722;29;20715;-43
2023/09/03 10:13:42;;;;;;;4.35;1.67;;;;;;;-146.87;100.00;60295.22;4951726;28;20190;-43
2023/09/03 10:16:11;;;;;;;2.03;1.23;;;;;;;-146.87;100.00;60295.22;4943872;28;20285;-44
2023/09/03 10:18:48;;;;;;;3.58;1.33;;;;;;;-146.87;100.00;60295.22;4963828;28;20345;-47
2023/09/03 10:21:20;;;;;;;3.83;1.60;;;;;;;-146.87;100.00;60295.22;4959992;28;20210;-45
2023/09/03 10:23:48;;;;;;;2.50;1.52;;;;;;;-146.87;100.00;60295.22;4952511;28;20654;-45
2023/09/03 10:26:19;;;;;;;2.47;1.48;;;;;;;-146.87;100.00;60295.22;4954304;28;20600;-47
2023/09/03 10:28:47;;;;;;;5.50;1.60;;;;;;;-146.87;100.00;60295.22;4951074;28;20194;-44
2023/09/03 10:31:15;;;;;;;1.73;1.30;;;;;;;-146.87;100.00;60295.22;4955973;28;20207;-46
2023/09/03 10:33:41;;;;;;;1.92;1.23;;;;;;;-146.87;100.00;60295.22;4951375;28;20183;-48
2023/09/03 10:36:20;;;;;;;2.42;1.45;;;;;;;-146.87;100.00;60295.22;4938270;29;20177;-47
2023/09/03 10:38:47;;;;;;;3.80;1.48;;;;;;;-146.87;100.00;60295.22;4949904;29;20265;-48
2023/09/03 10:41:25;;;;;;;2.80;1.60;;;;;;;-146.87;100.00;60295.22;4949825;29;20206;-46
2023/09/03 10:43:54;;;;;;;2.88;1.20;;;;;;;-146.87;100.00;60295.22;4957553;28;20189;-46
2023/09/03 10:46:22;;;;;;;5.32;1.40;;;;;;;-146.87;100.00;60295.22;4949519;29;20582;-47
2023/09/03 10:48:53;;;;;;;2.78;1.33;;;;;;;-146.87;100.00;60295.22;4949474;29;20572;-47
2023/09/03 10:51:44;;;;;;;3.40;1.42;;;;;;;-146.87;100.00;60295.22;4954581;28;20782;-43
2023/09/03 10:54:20;;;;;;;2.13;1.38;;;;;;;-146.87;100.00;60295.22;4941769;29;20194;-44
2023/09/03 10:57:04;;;;;;;1.15;1.00;;;;;;;-146.87;100.00;60295.22;4950512;28;20659;-44
2023/09/03 10:59:57;;;;;;;3.60;1.63;;;;;;;-146.87;100.00;60295.22;4945187;28;20237;-47
2023/09/03 11:02:27;;;;;;;3.15;1.45;;;;;;;-146.87;100.00;60295.22;4947186;28;20241;-47
2023/09/03 11:05:12;;;;;;;2.72;1.20;;;;;;;-146.87;100.00;60295.22;4962002;23;20229;-51
2023/09/03 11:07:38;;;;;;;3.08;1.52;;;;;;;-146.87;100.00;60295.22;4961135;28;20548;-46
2023/09/03 11:10:25;;;;;;;1.83;1.15;;;;;;;-146.87;100.00;60295.22;4953244;29;20190;-48
2023/09/03 11:12:52;;;;;;;1.75;1.00;;;;;;;-146.87;100.00;60295.22;4932863;28;20648;-46